Time;durP1;ratioP1;P1;durP2;ratioP2;P2;SDS_P1;SDS_P2;PMS_P1;PMS_P2;Temp;Humidity;BMP_temperature;BMP_pressure;BME280_temperature;BME280_humidity;BME280_pressure;Samples;Min_cycle;Max_cycle;Signal;HPM_P1;HPM_P2
2022/04/24 00:00:17;;;;;;;10.77;9.68;;;13.50;90.20;;;13.72;100.00;98606.53;5030144;28;20053;-77
2022/04/24 00:02:45;;;;;;;10.27;9.27;;;13.50;90.30;;;13.71;100.00;98596.91;5033274;28;20655;-77
2022/04/24 00:05:13;;;;;;;10.60;9.30;;;13.50;90.30;;;13.63;100.00;98599.22;5030717;28;20041;-77
2022/04/24 00:07:40;;;;;;;9.98;9.00;;;13.50;90.30;;;13.65;100.00;98593.81;5031713;28;20565;-77
2022/04/24 00:10:07;;;;;;;9.48;8.52;;;13.50;90.40;;;13.66;100.00;98599.00;5013543;28;20510;-77
2022/04/24 00:12:34;;;;;;;10.10;9.07;;;13.50;90.50;;;13.61;100.00;98595.81;5031818;28;20489;-77
2022/04/24 00:15:01;;;;;;;10.48;9.43;;;13.50;90.50;;;13.60;100.00;98594.97;5032025;28;20045;-77
2022/04/24 00:17:28;;;;;;;10.60;9.30;;;13.50;90.60;;;13.59;100.00;98595.91;5030328;28;20072;-76
2022/04/24 00:19:55;;;;;;;9.45;8.45;;;13.50;90.50;;;13.61;100.00;98594.00;5013272;28;20784;-77
2022/04/24 00:22:22;;;;;;;13.13;9.15;;;13.50;90.60;;;13.61;100.00;98591.38;5030456;28;20050;-77
2022/04/24 00:24:49;;;;;;;10.27;9.05;;;14.50;90.80;;;13.64;100.00;98587.69;5031583;28;20050;-77
2022/04/24 00:27:16;;;;;;;10.80;9.68;;;13.60;90.60;;;13.60;100.00;98594.97;5030782;28;20049;-77
2022/04/24 00:29:43;;;;;;;10.13;8.68;;;13.40;90.50;;;13.57;100.00;98587.25;5029672;28;20045;-77
2022/04/24 00:32:10;;;;;;;9.38;8.48;;;13.40;90.70;;;13.56;100.00;98589.97;5029697;28;20124;-78
2022/04/24 00:34:38;;;;;;;10.13;9.13;;;13.50;90.60;;;13.59;100.00;98595.91;5028752;28;20041;-77
2022/04/24 00:37:05;;;;;;;10.00;9.00;;;13.40;90.60;;;13.55;100.00;98588.28;5013380;28;20055;-77
2022/04/24 00:39:32;;;;;;;10.55;9.45;;;13.70;90.60;;;13.49;100.00;98600.09;5028307;28;20050;-77
2022/04/24 00:41:59;;;;;;;9.05;8.15;;;13.40;90.90;;;13.50;100.00;98590.38;5029140;28;20810;-77
2022/04/24 00:44:27;;;;;;;10.93;8.65;;;13.40;90.70;;;13.51;100.00;98595.56;5030039;28;20049;-77
2022/04/24 00:47:20;;;;;;;11.23;9.00;;;13.40;90.70;;;13.47;100.00;98596.69;5029681;28;20068;-77
2022/04/24 00:49:48;;;;;;;8.73;7.93;;;13.30;90.50;;;13.45;100.00;98590.66;5029010;28;20141;-77
2022/04/24 00:52:17;;;;;;;12.30;10.00;;;13.40;90.70;;;13.38;100.00;98592.00;5031216;28;20041;-77
2022/04/24 00:54:44;;;;;;;9.80;8.80;;;13.30;90.80;;;13.33;100.00;98592.28;5029318;28;20833;-77
2022/04/24 00:57:13;;;;;;;10.55;9.55;;;13.30;90.60;;;13.32;100.00;98585.31;5030957;28;20041;-77
2022/04/24 00:59:41;;;;;;;10.13;9.07;;;14.00;90.70;;;13.28;100.00;98579.38;5028967;28;20045;-77
2022/04/24 01:02:09;;;;;;;10.13;9.10;;;13.70;91.00;;;13.27;100.00;98577.66;5029800;28;20294;-78
2022/04/24 01:04:38;;;;;;;13.50;9.32;;;13.30;90.70;;;13.17;100.00;98580.06;5045569;28;20045;-77
2022/04/24 01:07:06;;;;;;;10.57;9.40;;;13.10;90.90;;;13.15;100.00;98575.81;5026377;28;20053;-77
2022/04/24 01:09:35;;;;;;;14.05;8.95;;;13.10;90.90;;;13.11;100.00;98579.59;5025882;28;20046;-78
2022/04/24 01:12:04;;;;;;;10.35;9.35;;;13.20;90.90;;;13.10;100.00;98583.19;5040629;28;20129;-77
2022/04/24 01:14:32;;;;;;;9.85;8.82;;;13.00;91.10;;;13.10;100.00;98580.53;5024562;28;20045;-77
2022/04/24 01:17:02;;;;;;;9.40;8.48;;;13.00;91.10;;;12.98;100.00;98583.00;5019145;28;20056;-77
2022/04/24 01:19:30;;;;;;;9.40;8.35;;;13.00;91.10;;;13.00;100.00;98570.53;5011591;28;20064;-77
2022/04/24 01:21:58;;;;;;;10.13;9.02;;;12.90;91.00;;;12.93;100.00;98576.31;5028054;28;20045;-77
2022/04/24 01:24:28;;;;;;;9.82;8.82;;;13.40;91.30;;;12.91;100.00;98579.91;5028116;28;20049;-77
2022/04/24 01:26:55;;;;;;;10.10;9.15;;;12.90;91.10;;;12.93;100.00;98581.59;5011855;28;20033;-77
2022/04/24 01:29:23;;;;;;;10.05;9.02;;;12.80;91.30;;;12.84;100.00;98568.03;5027301;28;20046;-77
2022/04/24 01:31:50;;;;;;;9.48;8.57;;;12.80;91.20;;;12.88;100.00;98569.53;5027970;28;20490;-77
2022/04/24 01:34:19;;;;;;;11.30;8.98;;;12.80;91.20;;;12.92;100.00;98570.19;5027963;28;20080;-77
2022/04/24 01:36:47;;;;;;;10.18;9.18;;;12.80;91.10;;;12.87;100.00;98573.13;5028446;28;20517;-77
2022/04/24 01:39:15;;;;;;;12.02;9.10;;;12.80;91.50;;;12.86;100.00;98576.69;5027300;28;20099;-77
2022/04/24 01:41:44;;;;;;;11.30;8.98;;;12.80;91.50;;;12.87;100.00;98562.56;5028432;28;20124;-77
2022/04/24 01:44:11;;;;;;;10.13;9.13;;;12.80;91.50;;;12.83;100.00;98568.97;5027620;28;20124;-77
2022/04/24 01:46:38;;;;;;;9.68;8.73;;;12.80;91.70;;;12.84;100.00;98578.59;5028110;28;20068;-77
2022/04/24 01:49:05;;;;;;;10.02;9.02;;;13.40;91.80;;;12.90;100.00;98574.72;5026992;28;20052;-77
2022/04/24 01:51:33;;;;;;;10.27;9.20;;;12.80;91.50;;;12.88;100.00;98573.97;5027889;28;20498;-77
2022/04/24 01:53:59;;;;;;;10.10;9.10;;;12.80;91.60;;;12.87;100.00;98569.63;5026937;28;20033;-77
2022/04/24 01:56:27;;;;;;;10.45;9.40;;;12.80;91.70;;;12.89;100.00;98576.50;5029661;28;20037;-78
2022/04/24 01:58:54;;;;;;;9.93;8.93;;;12.80;91.60;;;12.90;100.00;98569.44;5029463;28;20047;-77
2022/04/24 02:01:21;;;;;;;10.43;8.95;;;12.80;91.70;;;12.95;100.00;98572.63;5028142;28;20096;-77
2022/04/24 02:03:48;;;;;;;10.45;9.35;;;12.80;91.60;;;12.90;100.00;98567.63;5028671;28;20057;-77
2022/04/24 02:06:16;;;;;;;10.35;9.35;;;12.80;91.60;;;12.90;100.00;98572.09;5027473;28;20460;-77
2022/04/24 02:08:42;;;;;;;8.98;8.07;;;12.90;91.60;;;12.95;100.00;98572.63;5026853;28;20045;-77
2022/04/24 02:11:09;;;;;;;9.75;8.75;;;13.00;91.50;;;12.91;100.00;98564.06;5028960;28;20065;-77
2022/04/24 02:13:37;;;;;;;8.70;7.90;;;12.80;91.60;;;13.00;100.00;98562.63;5026739;28;20040;-77
2022/04/24 02:16:04;;;;;;;9.57;8.57;;;12.80;91.40;;;12.96;100.00;98569.06;5027649;28;20498;-77
2022/04/24 02:18:31;;;;;;;11.52;8.90;;;12.90;91.50;;;12.95;100.00;98572.63;5027416;28;20045;-77
2022/04/24 02:20:58;;;;;;;9.80;8.90;;;12.90;91.50;;;12.98;100.00;98580.34;5027680;28;20049;-77
2022/04/24 02:23:25;;;;;;;9.50;8.38;;;12.80;91.50;;;12.99;100.00;98592.63;5027178;28;20083;-77
2022/04/24 02:25:52;;;;;;;9.18;8.27;;;12.90;91.60;;;13.02;100.00;98608.25;5027347;28;20057;-77
2022/04/24 02:28:19;;;;;;;9.63;8.75;;;12.90;91.40;;;13.01;100.00;98611.00;5030843;28;20052;-77
2022/04/24 02:30:46;;;;;;;11.27;8.82;;;13.50;91.80;;;13.02;100.00;98618.81;5028986;28;20114;-78
2022/04/24 02:33:13;;;;;;;10.48;9.40;;;12.90;91.40;;;13.04;100.00;98624.88;5031375;28;20422;-77
2022/04/24 02:35:40;;;;;;;11.93;8.82;;;13.70;91.50;;;13.09;100.00;98626.38;5030166;28;20088;-77
2022/04/24 02:38:07;;;;;;;9.48;8.48;;;12.90;91.40;;;13.03;100.00;98630.25;5030932;28;20045;-77
2022/04/24 02:40:34;;;;;;;10.13;8.82;;;12.90;91.40;;;12.98;100.00;98629.69;5028358;28;20092;-77
2022/04/24 02:43:02;;;;;;;9.93;8.93;;;12.90;91.40;;;13.05;100.00;98631.84;5030240;28;20057;-77
2022/04/24 02:45:29;;;;;;;9.65;8.65;;;13.00;91.30;;;12.88;100.00;98624.13;5028805;28;20045;-78
2022/04/24 02:47:56;;;;;;;9.93;8.93;;;12.90;91.40;;;12.95;100.00;98637.78;5028816;28;20460;-78
2022/04/24 02:50:23;;;;;;;10.35;9.05;;;12.90;91.50;;;12.98;100.00;98630.53;5029504;28;20095;-78
2022/04/24 02:52:52;;;;;;;10.18;9.18;;;12.90;91.60;;;12.96;100.00;98631.56;5028492;28;20054;-77
2022/04/24 02:55:20;;;;;;;9.90;9.00;;;12.90;91.70;;;12.93;100.00;98640.53;5046671;28;20041;-78
2022/04/24 02:57:47;;;;;;;10.85;8.73;;;12.90;91.80;;;12.98;100.00;98637.59;5029861;28;20049;-78
2022/04/24 03:00:21;;;;;;;9.93;8.85;;;12.90;92.00;;;12.98;100.00;98646.34;5011686;28;20053;-78
2022/04/24 03:02:49;;;;;;;9.85;8.85;;;12.90;92.10;;;12.98;100.00;98646.34;5030302;28;20056;-78
2022/04/24 03:05:19;;;;;;;9.48;8.48;;;12.90;92.20;;;13.02;100.00;98636.47;5029224;28;20530;-77
2022/04/24 03:07:47;;;;;;;10.18;9.18;;;12.90;92.30;;;12.99;100.00;98632.22;5028328;28;20112;-77
2022/04/24 03:10:16;;;;;;;10.70;9.70;;;12.90;92.40;;;12.96;100.00;98636.84;5013716;28;20045;-78
2022/04/24 03:12:44;;;;;;;9.90;9.00;;;13.20;92.60;;;12.96;100.00;98637.69;5012792;28;20581;-78
2022/04/24 03:15:14;;;;;;;10.52;8.90;;;13.70;92.80;;;12.82;100.00;98629.75;5029920;28;20049;-76
2022/04/24 03:17:42;;;;;;;10.20;8.82;;;12.90;93.20;;;12.67;100.00;98635.03;5026392;28;20468;-76
2022/04/24 03:20:11;;;;;;;10.43;8.57;;;12.90;93.40;;;12.77;100.00;98622.13;5028993;28;20050;-78
2022/04/24 03:22:40;;;;;;;10.43;9.43;;;14.30;93.70;;;12.90;100.00;98624.88;5028913;28;20528;-79
2022/04/24 03:25:09;;;;;;;10.20;9.23;;;12.90;93.30;;;12.91;100.00;98631.84;5045986;28;20049;-78
2022/04/24 03:27:38;;;;;;;9.50;8.60;;;12.90;93.30;;;12.98;100.00;98624.41;5013230;28;20045;-78
2022/04/24 03:30:08;;;;;;;10.27;8.98;;;12.90;93.20;;;12.98;100.00;98627.88;5012761;28;20285;-78
2022/04/24 03:32:36;;;;;;;10.02;8.95;;;12.80;93.10;;;12.97;100.00;98623.53;5029339;28;20033;-78
2022/04/24 03:35:06;;;;;;;9.70;8.73;;;13.10;93.20;;;13.01;100.00;98614.47;5028374;28;20061;-76
2022/04/24 03:37:33;;;;;;;9.45;8.55;;;12.90;93.10;;;12.96;100.00;98624.50;5012435;28;20041;-77
2022/04/24 03:40:00;;;;;;;10.73;9.63;;;12.90;93.10;;;12.94;100.00;98622.88;5029616;28;20104;-78
2022/04/24 03:42:28;;;;;;;10.23;9.18;;;14.10;93.50;;;12.97;100.00;98618.25;5012384;28;20462;-76
2022/04/24 03:44:56;;;;;;;9.80;8.90;;;12.90;93.20;;;12.98;100.00;98614.69;4996716;28;20068;-77
2022/04/24 03:47:24;;;;;;;10.48;9.48;;;12.90;93.10;;;13.02;100.00;98623.25;5028873;28;20522;-76
2022/04/24 03:49:51;;;;;;;10.15;9.15;;;12.90;93.10;;;12.95;100.00;98612.22;5029684;28;20041;-78
2022/04/24 03:52:19;;;;;;;10.63;9.52;;;12.90;93.10;;;13.03;100.00;98615.25;4996819;28;20060;-79
2022/04/24 03:54:46;;;;;;;10.38;9.38;;;13.30;93.20;;;13.00;100.00;98620.69;5032023;28;20056;-79
2022/04/24 03:57:13;;;;;;;10.98;9.18;;;13.40;93.50;;;13.00;100.00;98612.78;5032383;28;20391;-79
2022/04/24 03:59:40;;;;;;;10.13;9.13;;;12.90;93.30;;;13.00;100.00;98610.16;5015905;28;20038;-79
2022/04/24 04:02:07;;;;;;;11.75;9.48;;;14.10;93.60;;;13.01;100.00;98611.00;5029208;28;20037;-79
2022/04/24 04:04:35;;;;;;;10.18;9.13;;;13.70;93.40;;;13.01;100.00;98617.13;5047754;28;20054;-78
2022/04/24 04:07:02;;;;;;;10.73;9.73;;;12.90;93.40;;;13.03;100.00;98614.41;5033628;28;20057;-79
2022/04/24 04:09:30;;;;;;;10.77;9.68;;;12.90;93.40;;;13.02;100.00;98618.81;5048076;28;20038;-79
2022/04/24 04:11:57;;;;;;;11.07;9.43;;;13.40;93.60;;;13.02;100.00;98621.44;5033281;28;20049;-80
2022/04/24 04:14:24;;;;;;;10.45;9.40;;;12.90;93.60;;;13.15;100.00;98633.91;5032391;28;20049;-79
2022/04/24 04:16:52;;;;;;;10.20;9.20;;;12.90;93.70;;;13.08;100.00;98635.25;5016179;28;20059;-78
2022/04/24 04:19:19;;;;;;;10.40;9.40;;;14.20;94.10;;;12.98;100.00;98635.78;5031579;28;20124;-79
2022/04/24 04:21:46;;;;;;;10.63;9.63;;;12.90;93.90;;;12.91;100.00;98637.97;5032366;28;20045;-79
2022/04/24 04:24:13;;;;;;;10.95;9.82;;;12.90;94.10;;;12.93;100.00;98637.88;5034117;28;20045;-78
2022/04/24 04:26:41;;;;;;;10.13;9.23;;;13.90;94.30;;;12.92;100.00;98644.09;5036540;28;20049;-78
2022/04/24 04:29:08;;;;;;;11.23;10.10;;;12.80;94.20;;;12.92;100.00;98649.38;5035339;28;20050;-77
2022/04/24 04:31:35;;;;;;;11.05;9.95;;;12.90;94.10;;;12.92;100.00;98657.31;5036605;28;20602;-78
2022/04/24 04:34:02;;;;;;;11.10;9.57;;;12.90;94.20;;;12.92;100.00;98649.38;5035994;28;20048;-80
2022/04/24 04:36:29;;;;;;;10.98;9.88;;;12.80;94.20;;;12.93;100.00;98660.78;5019969;28;20044;-79
2022/04/24 04:38:56;;;;;;;11.95;10.77;;;12.80;94.30;;;12.89;100.00;98660.97;5019170;28;20391;-78
2022/04/24 04:41:24;;;;;;;11.02;9.93;;;12.80;94.30;;;12.88;100.00;98663.72;5020574;28;20660;-79
2022/04/24 04:43:51;;;;;;;11.20;10.10;;;13.90;94.60;;;12.93;100.00;98666.06;5036422;28;20045;-79
2022/04/24 04:46:18;;;;;;;10.73;9.73;;;12.90;94.20;;;12.97;100.00;98673.69;5037229;28;20063;-79
2022/04/24 04:48:45;;;;;;;12.80;10.45;;;14.20;94.60;;;12.96;100.00;98673.81;5036109;28;20045;-79
2022/04/24 04:51:12;;;;;;;11.02;9.60;;;13.70;94.50;;;13.00;100.00;98672.66;5003671;28;20045;-79
2022/04/24 04:53:39;;;;;;;11.80;10.70;;;12.90;94.30;;;12.94;100.00;98680.94;5033785;28;20049;-78
2022/04/24 04:56:06;;;;;;;11.65;9.77;;;12.90;94.40;;;12.89;100.00;98686.53;5032085;28;20049;-78
2022/04/24 04:58:34;;;;;;;11.25;10.15;;;12.80;94.40;;;12.91;100.00;98685.47;5032786;28;20045;-77
2022/04/24 05:01:02;;;;;;;11.85;10.75;;;12.80;94.20;;;12.90;100.00;98690.88;5028614;28;20510;-77
2022/04/24 05:03:30;;;;;;;12.23;10.15;;;12.90;94.30;;;12.94;100.00;98681.81;5012016;28;20066;-77
2022/04/24 05:05:58;;;;;;;11.73;10.57;;;13.50;94.30;;;12.95;100.00;98687.91;5013006;28;20057;-78
2022/04/24 05:08:26;;;;;;;12.32;10.15;;;12.90;94.30;;;12.92;100.00;98694.25;5014661;28;20490;-78
2022/04/24 05:10:53;;;;;;;12.57;10.75;;;12.80;94.30;;;12.87;100.00;98691.88;4995070;28;20430;-78
2022/04/24 05:13:20;;;;;;;11.05;10.00;;;12.90;94.40;;;12.86;100.00;98691.97;4993372;28;20045;-77
2022/04/24 05:15:48;;;;;;;11.05;9.55;;;12.90;94.60;;;12.86;100.00;98689.34;5009677;28;20108;-77
2022/04/24 05:18:19;;;;;;;11.30;10.18;;;12.80;94.70;;;12.87;100.00;98693.66;5010260;28;20042;-78
2022/04/24 05:20:46;;;;;;;11.57;9.52;;;14.10;95.10;;;12.87;100.00;98698.94;5009454;28;20489;-77
2022/04/24 05:23:13;;;;;;;12.68;9.93;;;12.80;94.70;;;12.88;100.00;98695.41;5010296;28;20054;-78
2022/04/24 05:25:40;;;;;;;12.32;10.88;;;12.80;94.70;;;12.86;100.00;98699.88;5032775;28;20060;-78
2022/04/24 05:28:07;;;;;;;12.07;10.27;;;12.80;94.70;;;12.89;100.00;98697.91;4994573;28;20045;-77
2022/04/24 05:30:35;;;;;;;11.98;10.77;;;12.80;94.70;;;12.89;100.00;98702.38;5017270;28;20506;-79
2022/04/24 05:33:02;;;;;;;10.43;9.43;;;13.00;94.70;;;12.88;100.00;98712.06;5036450;28;20049;-77
2022/04/24 05:35:29;;;;;;;12.80;11.07;;;12.80;94.80;;;12.82;100.00;98716.84;5033005;28;20060;-78
2022/04/24 05:37:56;;;;;;;12.27;10.98;;;12.80;94.90;;;12.82;100.00;98719.50;5030493;28;20045;-78
2022/04/24 05:40:26;;;;;;;12.20;11.00;;;13.30;95.00;;;12.87;100.00;98730.63;5029385;28;20053;-77
2022/04/24 05:42:54;;;;;;;11.43;10.32;;;12.90;95.00;;;12.85;100.00;98727.22;5011963;28;20050;-78
2022/04/24 05:45:24;;;;;;;11.65;10.55;;;12.80;94.90;;;12.87;100.00;98730.63;5027997;28;20061;-78
2022/04/24 05:47:55;;;;;;;11.25;10.15;;;12.80;95.00;;;12.84;100.00;98726.41;5028652;28;20096;-77
2022/04/24 05:50:24;;;;;;;;;;;13.20;95.30;;;12.83;100.00;98731.75;5028027;28;20060;-78
2022/04/24 05:53:08;;;;;;;12.27;10.18;;;12.80;95.60;;;12.80;100.00;98729.31;5029534;28;19921;-77
2022/04/24 05:55:35;;;;;;;13.60;12.15;;;12.80;96.20;;;12.82;100.00;98738.84;5028920;28;20045;-77
2022/04/24 05:58:02;;;;;;;14.30;12.80;;;12.80;96.10;;;12.77;100.00;98744.38;5011909;28;20049;-78
2022/04/24 06:00:29;;;;;;;13.15;11.75;;;13.40;96.80;;;12.68;100.00;98737.00;5022086;28;20042;-78
2022/04/24 06:02:56;;;;;;;13.55;11.50;;;12.70;96.90;;;12.67;100.00;98747.66;5009539;28;20661;-77
2022/04/24 06:05:24;;;;;;;13.77;12.38;;;12.70;97.20;;;12.69;100.00;98751.06;5008850;28;20499;-77
2022/04/24 06:07:51;;;;;;;13.45;12.05;;;12.60;97.40;;;12.59;100.00;98753.38;4993668;28;20498;-80
2022/04/24 06:10:18;;;;;;;16.63;13.35;;;12.70;97.80;;;12.60;100.00;98752.44;4974993;28;20057;-77
2022/04/24 06:12:49;;;;;;;16.20;13.38;;;12.60;97.90;;;12.63;100.00;98754.91;5009795;28;20042;-78
2022/04/24 06:15:21;;;;;;;15.55;13.10;;;12.60;98.20;;;12.55;100.00;98759.75;5007306;28;20045;-78
2022/04/24 06:17:52;;;;;;;14.60;13.10;;;12.60;98.50;;;12.51;100.00;98769.66;5007888;28;20046;-78
2022/04/24 06:20:22;;;;;;;14.80;13.32;;;12.50;98.70;;;12.54;100.00;98768.59;4990917;28;20056;-78
2022/04/24 06:22:51;;;;;;;14.90;13.30;;;12.50;98.90;;;12.41;100.00;98768.47;4992015;28;20041;-78
2022/04/24 06:25:25;;;;;;;16.92;13.20;;;12.50;99.30;;;12.38;100.00;98774.75;4991508;28;20156;-77
2022/04/24 06:27:56;;;;;;;13.88;12.40;;;13.40;99.80;;;12.40;100.00;98775.53;5027874;28;20710;-78
2022/04/24 06:30:26;;;;;;;14.95;13.45;;;12.40;99.60;;;12.29;100.00;98776.13;5026800;28;20049;-78
2022/04/24 06:32:53;;;;;;;15.20;13.05;;;12.40;99.80;;;12.24;100.00;98770.28;5027948;28;20140;-78
2022/04/24 06:35:21;;;;;;;14.48;12.98;;;12.30;99.90;;;12.20;100.00;98781.94;5025742;28;20124;-79
2022/04/24 06:37:54;;;;;;;18.33;14.63;;;12.20;99.90;;;12.19;100.00;98778.44;5009644;28;20156;-76
2022/04/24 06:40:24;;;;;;;17.38;13.35;;;12.30;99.90;;;12.18;100.00;98789.94;5026612;28;20072;-77
2022/04/24 06:43:04;;;;;;;16.45;14.70;;;12.30;99.90;;;12.21;100.00;98786.28;5031750;28;20045;-81
2022/04/24 06:45:40;;;;;;;16.05;14.13;;;12.20;99.90;;;12.14;100.00;98795.47;5029344;28;20052;-76
2022/04/24 06:48:13;;;;;;;15.80;14.18;;;12.20;99.90;;;12.22;100.00;98787.13;5027552;28;20100;-78
2022/04/24 06:50:43;;;;;;;14.73;13.25;;;13.40;99.90;;;12.20;100.00;98790.69;5012201;28;20505;-77
2022/04/24 06:53:20;;;;;;;14.90;13.43;;;12.20;99.90;;;12.18;100.00;98794.38;5028061;28;20112;-78
2022/04/24 06:55:49;;;;;;;15.07;13.48;;;12.50;99.90;;;12.09;100.00;98798.34;5028565;28;20048;-78
2022/04/24 06:58:18;;;;;;;16.37;14.57;;;12.20;99.90;;;12.07;100.00;98796.75;5027959;28;20087;-78
2022/04/24 07:00:47;;;;;;;14.52;13.13;;;12.20;99.90;;;12.10;100.00;98802.72;5028753;28;20406;-80
2022/04/24 07:03:35;;;;;;;16.15;14.45;;;12.20;99.90;;;11.98;100.00;98808.63;5024702;28;20052;-81
2022/04/24 07:06:03;;;;;;;15.23;13.63;;;13.00;99.90;;;11.92;100.00;98808.00;4998360;28;20050;-79
2022/04/24 07:08:30;;;;;;;17.90;15.82;;;12.10;99.90;;;11.81;100.00;98810.41;5028103;28;20049;-78
2022/04/24 07:10:58;;;;;;;15.93;14.32;;;12.50;99.90;;;11.80;100.00;98811.34;5027976;28;20051;-77
2022/04/24 07:13:25;;;;;;;17.73;15.23;;;12.00;99.90;;;11.56;100.00;98816.97;5027404;28;20470;-77
2022/04/24 07:15:52;;;;;;;15.45;13.68;;;11.90;99.90;;;11.57;100.00;98821.28;5027965;28;20045;-78
2022/04/24 07:18:21;;;;;;;15.52;13.90;;;11.80;99.90;;;11.52;100.00;98814.56;5027596;28;20045;-79
2022/04/24 07:20:48;;;;;;;15.35;13.80;;;11.90;99.90;;;11.49;100.00;98824.34;5011342;28;20052;-78
2022/04/24 07:23:15;;;;;;;14.43;11.77;;;11.70;99.90;;;11.46;100.00;98821.00;5027915;28;20084;-78
2022/04/24 07:25:43;;;;;;;14.65;13.02;;;13.00;99.90;;;11.47;100.00;98828.84;4995028;28;20391;-76
2022/04/24 07:28:13;;;;;;;12.27;11.07;;;12.40;99.90;;;11.33;100.00;98824.31;5014699;28;20119;-78
2022/04/24 07:30:41;;;;;;;12.85;11.00;;;11.60;99.90;;;11.12;100.00;98821.00;5021311;28;20064;-79
2022/04/24 07:33:08;;;;;;;13.13;11.50;;;11.50;99.90;;;10.94;100.00;98837.72;4991863;28;20042;-78
2022/04/24 07:35:38;;;;;;;16.55;11.93;;;11.50;99.90;;;10.91;100.00;98822.94;5023734;28;20541;-78
2022/04/24 07:38:05;;;;;;;15.55;13.82;;;11.30;99.90;;;10.94;100.00;98835.91;4991087;28;20407;-78
2022/04/24 07:40:39;;;;;;;20.38;17.42;;;12.60;99.90;;;11.06;100.00;98834.44;5007299;28;20053;-78
2022/04/24 07:43:14;;;;;;;19.42;16.67;;;11.20;99.90;;;10.98;100.00;98840.09;5026967;28;20041;-79
2022/04/24 07:45:44;;;;;;;12.73;11.43;;;11.20;99.90;;;10.98;100.00;98834.84;5011289;28;20050;-77
2022/04/24 07:48:13;;;;;;;12.98;11.43;;;11.20;99.90;;;10.85;100.00;98842.50;5011294;28;20041;-78
2022/04/24 07:50:52;;;;;;;12.27;11.05;;;11.10;99.90;;;10.95;100.00;98855.22;5025854;28;20140;-79
2022/04/24 07:53:21;;;;;;;13.13;11.35;;;11.40;99.90;;;10.94;100.00;98849.06;5027162;28;20045;-78
2022/04/24 07:55:50;;;;;;;13.88;12.25;;;11.10;99.90;;;10.83;100.00;98851.38;5034141;28;20045;-80
2022/04/24 07:58:17;;;;;;;13.55;11.65;;;12.20;99.90;;;10.88;100.00;98858.13;4993035;28;20558;-78
2022/04/24 08:00:45;;;;;;;13.75;12.35;;;11.60;99.90;;;10.86;100.00;98846.00;5020095;28;20053;-78
2022/04/24 08:03:14;;;;;;;12.45;11.02;;;12.00;99.90;;;10.87;100.00;98850.31;5036477;28;20081;-79
2022/04/24 08:05:59;;;;;;;16.00;12.50;;;11.00;99.90;;;10.84;100.00;98850.44;5031417;28;20041;-78
2022/04/24 08:08:26;;;;;;;15.73;11.85;;;11.00;99.90;;;10.88;100.00;98859.91;5033663;28;20052;-79
2022/04/24 08:10:56;;;;;;;15.52;12.88;;;11.00;99.90;;;10.84;100.00;98855.72;5031828;28;20046;-79
2022/04/24 08:13:25;;;;;;;15.13;12.57;;;11.40;99.90;;;10.87;100.00;98856.44;5031097;28;20508;-78
2022/04/24 08:15:54;;;;;;;12.63;11.40;;;9.90;99.90;;;10.83;100.00;98860.16;5011667;28;20073;-78
2022/04/24 08:18:21;;;;;;;13.30;11.90;;;11.00;99.90;;;10.85;100.00;98855.66;5010994;28;20050;-78
2022/04/24 08:20:48;;;;;;;11.55;10.35;;;11.00;99.90;;;10.86;100.00;98865.25;5031350;28;20045;-76
2022/04/24 08:23:16;;;;;;;13.38;11.65;;;11.00;99.90;;;10.81;100.00;98855.88;5013521;28;20050;-78
2022/04/24 08:25:45;;;;;;;15.80;12.25;;;11.70;99.90;;;10.94;100.00;98869.28;5013621;28;20045;-79
2022/04/24 08:28:13;;;;;;;12.80;11.48;;;11.60;99.90;;;10.90;100.00;98863.31;5013707;28;20056;-78
2022/04/24 08:30:48;;;;;;;13.75;10.75;;;11.00;99.90;;;10.89;100.00;98866.88;5029239;28;20405;-77
2022/04/24 08:33:17;;;;;;;13.48;11.00;;;11.00;99.90;;;10.88;100.00;98862.56;5031249;28;20042;-78
2022/04/24 08:35:48;;;;;;;12.05;10.85;;;11.40;99.90;;;10.98;100.00;98871.69;5029910;28;20052;-77
2022/04/24 08:38:16;;;;;;;19.52;11.88;;;11.00;99.90;;;10.92;100.00;98859.66;5032062;28;20125;-78
2022/04/24 08:40:47;;;;;;;13.45;12.13;;;11.10;99.90;;;11.04;100.00;98855.59;5032505;28;20073;-78
2022/04/24 08:43:15;;;;;;;12.00;10.90;;;11.10;99.90;;;11.07;100.00;98868.59;5016206;28;20060;-79
2022/04/24 08:45:46;;;;;;;12.32;11.02;;;11.10;99.90;;;11.12;100.00;98870.13;5008546;28;20060;-79
2022/04/24 08:48:14;;;;;;;12.32;10.65;;;11.20;99.90;;;11.13;100.00;98877.09;5033951;28;20045;-78
2022/04/24 08:50:48;;;;;;;13.05;11.75;;;13.10;99.90;;;11.03;100.00;98874.09;5032720;28;20673;-77
2022/04/24 08:53:17;;;;;;;14.45;12.57;;;11.40;99.90;;;11.16;100.00;98866.41;5013904;28;20140;-77
2022/04/24 08:55:44;;;;;;;13.18;11.77;;;11.20;99.90;;;11.24;100.00;98868.66;5031455;28;20037;-78
2022/04/24 08:58:11;;;;;;;14.55;13.07;;;11.30;99.90;;;11.39;100.00;98862.59;5012878;28;20072;-78
2022/04/24 09:00:39;;;;;;;15.57;13.65;;;11.70;99.90;;;11.03;100.00;98880.22;5012895;28;20516;-77
2022/04/24 09:03:07;;;;;;;14.68;12.90;;;12.20;99.90;;;10.98;100.00;98876.94;5029742;28;20053;-77
2022/04/24 09:05:34;;;;;;;16.10;13.02;;;11.30;99.90;;;11.08;100.00;98869.44;5046571;28;20055;-78
2022/04/24 09:08:13;;;;;;;15.57;13.18;;;11.30;99.90;;;11.31;100.00;98865.63;5044168;28;20041;-76
2022/04/24 09:11:00;;;;;;;15.27;13.75;;;11.30;99.90;;;11.14;100.00;98865.66;4997959;28;20658;-77
2022/04/24 09:14:14;;;;;;;15.90;13.55;;;11.40;99.90;;;11.11;100.00;98873.69;5012891;28;20065;-78
2022/04/24 09:16:38;;;;;;;13.65;12.20;;;11.30;99.90;;;11.07;100.00;98871.22;5017932;28;20049;-77
2022/04/24 09:19:17;;;;;;;15.85;13.77;;;11.30;99.90;;;11.20;100.00;98870.63;5007235;28;20053;-78
2022/04/24 09:21:45;;;;;;;13.70;12.40;;;11.30;99.90;;;10.97;100.00;98880.50;5031094;28;20045;-80
2022/04/24 09:24:12;;;;;;;15.23;12.57;;;11.30;99.90;;;10.98;100.00;98879.56;5030201;28;20083;-78
2022/04/24 09:26:56;;;;;;;17.10;14.27;;;11.30;99.90;;;11.00;100.00;98885.59;5014249;28;20057;-78
2022/04/24 09:29:23;;;;;;;20.42;16.73;;;11.20;99.90;;;11.05;100.00;98888.88;5012569;28;20396;-77
2022/04/24 09:31:51;;;;;;;21.40;15.85;;;11.20;99.90;;;11.00;100.00;98888.25;5045261;28;20041;-77
2022/04/24 09:34:21;;;;;;;16.35;13.95;;;11.20;99.90;;;11.19;100.00;98895.25;5030425;28;20045;-77
2022/04/24 09:37:04;;;;;;;14.50;12.65;;;11.20;99.90;;;11.32;100.00;98898.97;5026610;28;20041;-78
2022/04/24 09:39:34;;;;;;;13.30;11.45;;;12.10;99.90;;;11.26;100.00;98891.34;5030877;28;20063;-76
2022/04/24 09:42:09;;;;;;;12.98;11.63;;;11.40;99.90;;;11.30;100.00;98900.78;5044972;28;20037;-77
2022/04/24 09:44:40;;;;;;;11.82;10.60;;;11.40;99.90;;;11.30;100.00;98902.59;5046430;28;20045;-77
2022/04/24 09:47:27;;;;;;;16.20;12.75;;;11.40;99.90;;;11.25;100.00;98904.63;5014947;28;20037;-77
2022/04/24 09:49:55;;;;;;;20.35;14.25;;;11.40;99.90;;;11.14;100.00;98906.00;5027568;28;20184;-76
2022/04/24 09:52:31;;;;;;;16.08;11.57;;;12.90;99.90;;;11.20;100.00;98905.69;5028008;28;20047;-76
2022/04/24 09:55:00;;;;;;;13.55;11.95;;;11.50;99.90;;;11.11;100.00;98907.91;5028189;28;20498;-76
2022/04/24 09:57:30;;;;;;;15.23;12.82;;;11.30;99.90;;;11.25;100.00;98910.72;5011974;28;20041;-77
2022/04/24 09:59:57;;;;;;;17.25;13.80;;;11.50;99.90;;;11.17;100.00;98897.09;5011632;28;20122;-76
2022/04/24 10:02:26;;;;;;;14.70;12.80;;;11.30;99.90;;;11.20;100.00;98900.41;5008110;28;20124;-76
2022/04/24 10:04:57;;;;;;;16.48;13.10;;;11.40;99.90;;;11.17;100.00;98915.53;4972744;28;20050;-76
2022/04/24 10:07:24;;;;;;;14.65;13.15;;;11.40;99.90;;;11.32;100.00;98924.44;5005291;28;20073;-76
2022/04/24 10:09:55;;;;;;;13.43;12.02;;;11.40;99.90;;;11.29;100.00;98927.22;5004147;28;20056;-76